TFM - Tactical Decision Aid (Experimental) INFO Settings
ID: Runway Winds: CIG/VIS Threshold: METAR Board: Map:

KGRB - Green Bay-Straubel Intl

Updated at: 2304 UTC 20 Feb 2018
Latest TAF at: 2051 UTC 20 Feb 2018

TAF Board

Time2253Z21/00Z21/01Z21/02Z21/03Z21/04Z21/05Z21/06Z21/07Z21/08Z21/09Z21/10Z21/11Z21/12Z
TypeOBSPRVLPRVLPRVLPRVLPRVLPRVLPRVLPRVLPRVLPRVLPRVLPRVLPRVL
VIS10>6>6>6>6>6>6>6>6>6>6>6>6>6
CIG121825252525----------------
CoverOVCOVCBKNBKNBKNBKNSCTSCTSCTSCTSCTSKCSKCSKC
FltCatMVFRMVFRMVFRMVFRMVFRMVFRVFRVFRVFRVFRVFRVFRVFRVFR
WX----------------------------
WDir270270280280280280300300300300300300300300
WSpd11899991111111111999
WGst------------1616161616------
R06/24
XWnd6466661010101010888
XGst------------1414141414------
HWnd-10-7-7-7-7-7-6-6-6-6-6-5-5-5
HGst-------------8-8-8-8-8------
R18/36
XWnd-11-8-9-9-9-9-10-10-10-10-10-8-8-8
XGst-------------14-14-14-14-14------
HWnd00-2-2-2-2-6-6-6-6-6-5-5-5
HGst-------------8-8-8-8-8------
TAF
KGRB 202051Z 2021/2118 25006KT 6SM BR BKN007 OVC015
  TEMPO 2021/2022 5SM -RA
  FM202300 27008KT P6SM OVC018
  FM210100 28009KT P6SM BKN025
  FM210500 30011G16KT P6SM SCT030
  FM211000 30009KT P6SM SKC


METAR Board

Time20/12Z 20/13Z 20/14Z 20/15Z 20/16Z 20/17Z 20/18Z 20/19Z 20/20Z 20/21Z 20/22Z 20/23Z
VIS2 6 10 10 10 10 4 7 8 10 10 10
CIG2 48 5 5 17 5 6 7 8 8 10 12
CoverOVCOVCOVCOVCOVCOVCOVCOVCOVCOVCOVCOVC
FltCatLIFRVFRIFRIFRMVFRIFRIFRIFRIFRIFRMVFRMVFR
WXFZRA BRBR UPUP-------RA BR---RA------
WDir209080001902202400260250270
WSpd5 6 5 0 0 3 6 8 6 9 7 11
WGst-- -- -- -- -- -- -- -- -- -- -- --
METAR
KGRB 201205Z 02005KT 2SM FZRA BR OVC002 M01/M01 A2985 RMK AO2 P0003 I1004 T10061011
KGRB 201253Z 09006KT 6SM UP BR SCT006 OVC048 M01/M02 A2982 RMK AO2 UPB31FZRAE31 SLP107 P0016 I1006 T10061017
KGRB 201353Z 08005KT 10SM UP OVC005 M01/M02 A2978 RMK AO2 SLP092 P0004 I1001 T10061017
KGRB 201453Z 00000KT 10SM OVC005 00/M02 A2982 RMK AO2 UPE02 SLP109 P0000 60020 I1001 I3008 T00001017 55009
KGRB 201602Z 00000KT 10SM SCT006 OVC017 01/M01 A2979 RMK AO2 T00061011
KGRB 201653Z 19003KT 10SM BKN005 OVC014 01/M01 A2980 RMK AO2 SLP100 T00061006
KGRB 201753Z 22006KT 4SM -RA BR BKN006 OVC014 01/00 A2981 RMK AO2 RAB49 SLP104 P0000 60020 I6008 T00110000 10011 21006 50008
KGRB 201853Z 24008KT 7SM BKN007 OVC017 02/00 A2981 RMK AO2 RAE04 SLP104 P0000 T00170000
KGRB 202002Z VRB06KT 8SM -RA OVC008 02/00 A2980 RMK AO2 P0000 T00170000
KGRB 202053Z 26009KT 10SM OVC008 02/M01 A2984 RMK AO2 RAE20 SLP114 P0000 60001 T00171006 53010
KGRB 202153Z 25007KT 10SM OVC010 02/00 A2984 RMK AO2 SLP115 T00170000
KGRB 202253Z 27011KT 10SM OVC012 02/M01 A2989 RMK AO2 PRESRR SLP131 T00171011

TAF/METAR Board Legend

Potential Impact
  None Marginal Slight Moderate High
Visibility (sm) >5 3≤X≤5 1≤X<3 <1
Ceiling (100 ft) >30 10≤X≤30 5≤X<10 <5
Wind Speed (kt) <10 10≤X<20 20≤X<30 ≥30
Wind Gust (kt) <15 15≤X<25 25≤X<35 ≥35
Weather No Wx Reported VCTS -TS,-FZRA TS,FZRA +TS,+FZRA




Page loaded:  23:04 UTC  |   03:04 PM Pacific  |   04:04 PM Mountain  |   05:04 PM Central  |   06:04 PM Eastern